Disney Wonder — C6QM8 — position and weather

sailwx.info

Track history (hours):
 
Tides and Currents Weather Stations Pressure Air Temp Water Temp Dewpoint Dewpoint Depression Visibility Wind Speed Wind Dir Waves Ship Positions

Disney Wonder

Last reported at 2018-May-27 08:00 UTC. Time now 2018-May-27 08:14 UTC.
Position N 54°20' W 131°00'.

Length 301 m; draft 8.2 m.

Type: Passenger vessel. MMSI: 308457000.

Date/timePositionNaut miles runAvg speedWind from/ knotsBaromVisibWave heightAir tempDewpointWater temp
2018-May-27 08:00N 54°20' W 131°00'612.4
2018-May-27 07:30N 54°25' W 131°05'  
2018-May-23 04:28N 54°25' W 131°31'918.3
2018-May-23 04:00N 54°23' W 131°17'918.6
2018-May-23 03:30N 54°20' W 131°01'917.8
2018-May-23 03:00N 54°17' W 130°47'815.3
2018-May-23 02:30N 54°12' W 130°37'918.2
2018-May-23 02:00N 54°07' W 130°24'918.3
2018-May-23 01:30N 54°01' W 130°13'815.9
2018-May-23 01:00N 53°54' W 130°06'714.1
2018-May-23 00:30N 53°49' W 129°58'8516.6
2018-May-22 19:24N 52°33' W 128°53'718.2
2018-May-22 19:01N 52°26' W 128°52'917.6
2018-May-22 18:31N 52°18' W 128°52'917.5
2018-May-22 18:01N 52°09' W 128°56'917.1
2018-May-22 17:31N 52°01' W 128°55'917.6
2018-May-22 17:01N 51°52' W 128°52'917.3
2018-May-22 16:30N 51°44' W 128°48'917.1
2018-May-22 16:00N 51°35' W 128°44'917.5
2018-May-22 15:30N 51°27' W 128°41'917.8
2018-May-22 15:00N 51°18' W 128°37'917.3
2018-May-22 14:30N 51°13' W 128°26'918.2
2018-May-22 14:00N 51°08' W 128°14'918.2
2018-May-22 13:30N 51°04' W 128°01'918.4
2018-May-22 13:01N 50°59' W 127°48'918.9
2018-May-22 12:31N 50°53' W 127°37'918.8
2018-May-22 12:00N 50°49' W 127°23'918.8
2018-May-22 11:30N 50°45' W 127°10'1018.9
2018-May-22 11:00N 50°42' W 126°55'1117.6
2018-May-22 10:21N 50°35' W 126°42'5017.2
2018-May-22 07:25N 50°20' W 125°26'717.8
2018-May-22 07:00N 50°13' W 125°23'713.3
2018-May-22 06:30N 50°07' W 125°19'612.9
2018-May-22 06:00N 50°02' W 125°13'611.9
2018-May-22 05:30N 49°57' W 125°08'510.1
2018-May-22 05:00N 49°53' W 125°02'510.7
2018-May-22 04:30N 49°50' W 124°56'917.2
2018-May-22 04:00N 49°44' W 124°47'919.0
2018-May-22 03:30N 49°37' W 124°37'1018.5
2018-May-22 02:59N 49°29' W 124°29'3418.5
2018-May-22 01:10N 49°19' W 123°39'418.4
2018-May-22 00:58N 49°19' W 123°34'818.1
2018-May-22 00:30N 49°19' W 123°21'816.0
2018-May-22 00:00N 49°19' W 123°08'2 3.6
2018-May-21 23:29N 49°17' W 123°07'0 0.0
2018-May-21 22:59N 49°17' W 123°07'0 0.0
2018-May-21 22:29N 49°17' W 123°07'0 0.0
2018-May-21 21:59N 49°17' W 123°07'0 0.0
2018-May-21 21:29N 49°17' W 123°07'0 0.0
2018-May-21 20:59N 49°17' W 123°07'0 0.0
2018-May-21 20:29N 49°17' W 123°07'0 0.0
2018-May-21 19:59N 49°17' W 123°07'0 0.0
2018-May-21 19:29N 49°17' W 123°07'0 0.0
2018-May-21 18:59N 49°17' W 123°07'0 0.0
2018-May-21 18:29N 49°17' W 123°07'0 0.0
2018-May-21 17:59N 49°17' W 123°07'0 0.0
2018-May-21 17:29N 49°17' W 123°07'0 0.0
2018-May-21 16:59N 49°17' W 123°07'0 0.0
2018-May-21 16:29N 49°17' W 123°07'0 0.0
2018-May-21 15:59N 49°17' W 123°07'0 0.0
2018-May-21 15:29N 49°17' W 123°07'0 0.0
2018-May-21 14:59N 49°17' W 123°07'0 0.0
2018-May-21 14:29N 49°17' W 123°07'0 0.0
2018-May-21 14:00N 49°17' W 123°07'0 0.1
2018-May-21 13:30N 49°17' W 123°07'0 0.4
2018-May-21 13:00N 49°18' W 123°07'3 6.7
2018-May-21 12:30N 49°19' W 123°11'4 7.5
2018-May-21 11:59N 49°18' W 123°17'4 6.5
2018-May-21 11:23N 49°17' W 123°23'3 6.7
2018-May-21 10:57N 49°15' W 123°27'3 6.6
2018-May-21 10:27N 49°14' W 123°31'3 6.9
2018-May-21 10:00N 49°11' W 123°32'4 7.1
2018-May-21 09:30N 49°07' W 123°31'4 7.0
2018-May-21 08:59N 49°04' W 123°28'3 7.0
2018-May-21 08:30N 49°01' W 123°25'3 7.0
2018-May-21 08:00N 48°59' W 123°21'4 7.5
2018-May-21 07:29N 48°56' W 123°17'3 6.9
2018-May-21 07:00N 48°54' W 123°13'3 7.0
2018-May-21 06:30N 48°52' W 123°08'6 7.8
2018-May-21 05:46N 48°50' W 123°00'4 9.2
2018-May-21 05:19N 48°46' W 123°03'310.7
2018-May-21 05:00N 48°44' W 123°07'510.3
2018-May-21 04:30N 48°42' W 123°14'510.2
2018-May-21 04:00N 48°37' W 123°14'510.6
2018-May-21 03:30N 48°32' W 123°11'5 9.9
2018-May-21 03:00N 48°27' W 123°09'612.0
2018-May-21 02:30N 48°23' W 123°15'610.1
2018-May-21 01:56N 48°24' W 123°24'1 0.2
2018-May-20 21:32N 48°25' W 123°23'0 0.0
2018-May-20 21:29N 48°25' W 123°23'0 0.0
2018-May-20 20:57N 48°25' W 123°23'0 0.0
2018-May-20 20:30N 48°25' W 123°23'0 0.0
2018-May-20 20:00N 48°25' W 123°23'0 0.0
2018-May-20 19:30N 48°25' W 123°23'0 0.0
2018-May-20 19:00N 48°25' W 123°23'0 0.0
2018-May-20 18:30N 48°25' W 123°23'0 0.0
2018-May-20 18:00N 48°25' W 123°23'0 0.0
2018-May-20 17:30N 48°25' W 123°23'0 0.0
2018-May-20 17:00N 48°25' W 123°23'0 0.0
2018-May-20 16:30N 48°25' W 123°23'1 1.2
2018-May-20 16:00N 48°25' W 123°24'611.2
2018-May-20 15:30N 48°19' W 123°25'816.4
2018-May-20 15:00N 48°14' W 123°34'917.0
2018-May-20 14:30N 48°14' W 123°47'918.2
2018-May-20 13:58N 48°15' W 124°01'918.6
2018-May-20 13:30N 48°18' W 124°13'918.4
2018-May-20 13:01N 48°23' W 124°25'918.0
2018-May-20 12:31N 48°27' W 124°37'917.7
2018-May-20 12:00N 48°29' W 124°51'816.8
2018-May-20 11:30N 48°25' W 125°02'918.4
2018-May-20 11:00N 48°17' W 125°07'7517.9
2018-May-20 06:48N 47°02' W 125°15'918.3
2018-May-20 06:18N 46°53' W 125°14'618.3
2018-May-20 05:59N 46°47' W 125°14'1418.0
2018-May-20 05:11N 46°33' W 125°13'318.0
2018-May-20 05:00N 46°29' W 125°12'917.9
2018-May-20 04:31N 46°21' W 125°12'1317.8
2018-May-20 03:48N 46°08' W 125°11'517.7
2018-May-20 03:30N 46°03' W 125°10'917.6
2018-May-20 03:01N 45°54' W 125°10'918.0
2018-May-20 02:31N 45°45' W 125°09'917.6
2018-May-20 02:01N 45°36' W 125°08'917.8
2018-May-20 01:30N 45°27' W 125°08'1017.8
2018-May-20 00:57N 45°18' W 125°07'817.7
2018-May-20 00:30N 45°10' W 125°06'1620.0
2018-May-19 23:42N 44°54' W 125°05'621.7
2018-May-19 23:26N 44°48' W 125°05'36720.7
2018-May-19 05:41N 38°44' W 123°55'420.6
2018-May-19 05:29N 38°41' W 123°52'1020.6
2018-May-19 04:59N 38°33' W 123°44'1020.1
2018-May-19 04:30N 38°26' W 123°37'1019.7
2018-May-19 04:00N 38°18' W 123°29'918.9
2018-May-19 03:30N 38°10' W 123°22'1019.3
2018-May-19 03:00N 38°03' W 123°14'1019.8
2018-May-19 02:30N 37°57' W 123°04'1020.4
2018-May-19 02:00N 37°51' W 122°53'1020.2
2018-May-19 01:30N 37°46' W 122°42'815.6
2018-May-19 01:00N 37°48' W 122°32'713.5
2018-May-19 00:30N 37°49' W 122°24'0 0.6
2018-May-18 23:58N 37°48' W 122°24'0 0.0
2018-May-18 23:28N 37°48' W 122°24'0 0.0
2018-May-18 22:58N 37°48' W 122°24'0 0.0
2018-May-18 22:28N 37°48' W 122°24'0 0.0
2018-May-18 21:58N 37°48' W 122°24'0 0.0
2018-May-18 21:28N 37°48' W 122°24'0 0.0
2018-May-18 20:58N 37°48' W 122°24'0 0.0
2018-May-18 20:28N 37°48' W 122°24'0 0.0
2018-May-18 19:58N 37°48' W 122°24'0 0.0
2018-May-18 19:28N 37°48' W 122°24'0 0.0
2018-May-18 18:58N 37°48' W 122°24'0 0.0
2018-May-18 18:28N 37°48' W 122°24'0 0.0
2018-May-18 17:55N 37°48' W 122°24'0 0.0
2018-May-18 17:28N 37°48' W 122°24'0 0.0
2018-May-18 16:58N 37°48' W 122°24'0 0.0
2018-May-18 16:25N 37°48' W 122°24'0 0.0
2018-May-18 15:58N 37°48' W 122°24'0 0.0
2018-May-18 15:28N 37°48' W 122°24'0 0.0
2018-May-18 14:58N 37°48' W 122°24'0 0.0
2018-May-18 14:28N 37°48' W 122°24'0 0.0
2018-May-18 13:58N 37°48' W 122°24'0 0.2
2018-May-18 13:30N 37°48' W 122°24'2 3.9
2018-May-18 13:00N 37°49' W 122°26'613.0
2018-May-18 12:30N 37°47' W 122°34'612.1
2018-May-18 12:01N 37°44' W 122°41'4 7.6
2018-May-18 11:30N 37°40' W 122°40'5 9.8
2018-May-18 11:00N 37°36' W 122°40'510.3
2018-May-18 10:31N 37°30' W 122°40'510.4
2018-May-18 10:00N 37°25' W 122°40'816.9
2018-May-18 09:30N 37°17' W 122°40'815.8
2018-May-18 09:00N 37°09' W 122°41'140 9.1
2018-May-17 17:32N 35°03' W 121°24'118.1
2018-May-17 17:29N 35°02' W 121°23'917.7
2018-May-17 17:00N 34°55' W 121°18'1017.4
2018-May-17 16:27N 34°46' W 121°13'816.9
2018-May-17 16:00N 34°40' W 121°09'816.7
2018-May-17 15:30N 34°32' W 121°04'816.8
2018-May-17 15:00N 34°25' W 120°59'917.1
2018-May-17 14:30N 34°17' W 120°54'916.9
2018-May-17 14:00N 34°10' W 120°49'816.8
2018-May-17 13:30N 34°02' W 120°45'816.6
2018-May-17 13:00N 33°57' W 120°37'816.8
2018-May-17 12:30N 33°53' W 120°28'917.0
2018-May-17 12:00N 33°49' W 120°18'1617.0
2018-May-17 11:04N 33°42' W 120°02'116.0
2018-May-17 11:00N 33°42' W 120°01'916.7
2018-May-17 10:29N 33°38' W 119°51'817.1
2018-May-17 10:00N 33°34' W 119°42'817.0
2018-May-17 09:30N 33°30' W 119°33'917.0
2018-May-17 08:59N 33°27' W 119°24'816.7
2018-May-17 08:30N 33°23' W 119°15'816.9
2018-May-17 08:00N 33°20' W 119°06'  
Track history (hours):
 
Tides and Currents Weather Stations Pressure Air Temp Water Temp Dewpoint Dewpoint Depression Visibility Wind Speed Wind Dir Waves Ship Positions

Disney Wonder

Last reported at 2018-May-27 08:00 UTC. Time now 2018-May-27 08:14 UTC.
Position N 54°20' W 131°00'.

Length 301 m; draft 8.2 m.

Type: Passenger vessel. MMSI: 308457000.

Date/timePositionNaut miles runAvg speedWind from/ knotsBaromVisibWave heightAir tempDewpointWater temp
2018-May-27 08:00N 54°20' W 131°00'612.4
2018-May-27 07:30N 54°25' W 131°05'  
2018-May-23 04:28N 54°25' W 131°31'918.3
2018-May-23 04:00N 54°23' W 131°17'918.6
2018-May-23 03:30N 54°20' W 131°01'917.8
2018-May-23 03:00N 54°17' W 130°47'815.3
2018-May-23 02:30N 54°12' W 130°37'918.2
2018-May-23 02:00N 54°07' W 130°24'918.3
2018-May-23 01:30N 54°01' W 130°13'815.9
2018-May-23 01:00N 53°54' W 130°06'714.1
2018-May-23 00:30N 53°49' W 129°58'8516.6
2018-May-22 19:24N 52°33' W 128°53'718.2
2018-May-22 19:01N 52°26' W 128°52'917.6
2018-May-22 18:31N 52°18' W 128°52'917.5
2018-May-22 18:01N 52°09' W 128°56'917.1
2018-May-22 17:31N 52°01' W 128°55'917.6
2018-May-22 17:01N 51°52' W 128°52'917.3
2018-May-22 16:30N 51°44' W 128°48'917.1
2018-May-22 16:00N 51°35' W 128°44'917.5
2018-May-22 15:30N 51°27' W 128°41'917.8
2018-May-22 15:00N 51°18' W 128°37'917.3
2018-May-22 14:30N 51°13' W 128°26'918.2
2018-May-22 14:00N 51°08' W 128°14'918.2
2018-May-22 13:30N 51°04' W 128°01'918.4
2018-May-22 13:01N 50°59' W 127°48'918.9
2018-May-22 12:31N 50°53' W 127°37'918.8
2018-May-22 12:00N 50°49' W 127°23'918.8
2018-May-22 11:30N 50°45' W 127°10'1018.9
2018-May-22 11:00N 50°42' W 126°55'1117.6
2018-May-22 10:21N 50°35' W 126°42'5017.2
2018-May-22 07:25N 50°20' W 125°26'717.8
2018-May-22 07:00N 50°13' W 125°23'713.3
2018-May-22 06:30N 50°07' W 125°19'612.9
2018-May-22 06:00N 50°02' W 125°13'611.9
2018-May-22 05:30N 49°57' W 125°08'510.1
2018-May-22 05:00N 49°53' W 125°02'510.7
2018-May-22 04:30N 49°50' W 124°56'917.2
2018-May-22 04:00N 49°44' W 124°47'919.0
2018-May-22 03:30N 49°37' W 124°37'1018.5
2018-May-22 02:59N 49°29' W 124°29'3418.5
2018-May-22 01:10N 49°19' W 123°39'418.4
2018-May-22 00:58N 49°19' W 123°34'818.1
2018-May-22 00:30N 49°19' W 123°21'816.0
2018-May-22 00:00N 49°19' W 123°08'2 3.6
2018-May-21 23:29N 49°17' W 123°07'0 0.0
2018-May-21 22:59N 49°17' W 123°07'0 0.0
2018-May-21 22:29N 49°17' W 123°07'0 0.0
2018-May-21 21:59N 49°17' W 123°07'0 0.0
2018-May-21 21:29N 49°17' W 123°07'0 0.0
2018-May-21 20:59N 49°17' W 123°07'0 0.0
2018-May-21 20:29N 49°17' W 123°07'0 0.0
2018-May-21 19:59N 49°17' W 123°07'0 0.0
2018-May-21 19:29N 49°17' W 123°07'0 0.0
2018-May-21 18:59N 49°17' W 123°07'0 0.0
2018-May-21 18:29N 49°17' W 123°07'0 0.0
2018-May-21 17:59N 49°17' W 123°07'0 0.0
2018-May-21 17:29N 49°17' W 123°07'0 0.0
2018-May-21 16:59N 49°17' W 123°07'0 0.0
2018-May-21 16:29N 49°17' W 123°07'0 0.0
2018-May-21 15:59N 49°17' W 123°07'0 0.0
2018-May-21 15:29N 49°17' W 123°07'0 0.0
2018-May-21 14:59N 49°17' W 123°07'0 0.0
2018-May-21 14:29N 49°17' W 123°07'0 0.0
2018-May-21 14:00N 49°17' W 123°07'0 0.1
2018-May-21 13:30N 49°17' W 123°07'0 0.4
2018-May-21 13:00N 49°18' W 123°07'3 6.7
2018-May-21 12:30N 49°19' W 123°11'4 7.5
2018-May-21 11:59N 49°18' W 123°17'4 6.5
2018-May-21 11:23N 49°17' W 123°23'3 6.7
2018-May-21 10:57N 49°15' W 123°27'3 6.6
2018-May-21 10:27N 49°14' W 123°31'3 6.9
2018-May-21 10:00N 49°11' W 123°32'4 7.1
2018-May-21 09:30N 49°07' W 123°31'4 7.0
2018-May-21 08:59N 49°04' W 123°28'3 7.0
2018-May-21 08:30N 49°01' W 123°25'3 7.0
2018-May-21 08:00N 48°59' W 123°21'4 7.5
2018-May-21 07:29N 48°56' W 123°17'3 6.9
2018-May-21 07:00N 48°54' W 123°13'3 7.0
2018-May-21 06:30N 48°52' W 123°08'6 7.8
2018-May-21 05:46N 48°50' W 123°00'4 9.2
2018-May-21 05:19N 48°46' W 123°03'310.7
2018-May-21 05:00N 48°44' W 123°07'510.3
2018-May-21 04:30N 48°42' W 123°14'510.2
2018-May-21 04:00N 48°37' W 123°14'510.6
2018-May-21 03:30N 48°32' W 123°11'5 9.9
2018-May-21 03:00N 48°27' W 123°09'612.0
2018-May-21 02:30N 48°23' W 123°15'610.1
2018-May-21 01:56N 48°24' W 123°24'1 0.2
2018-May-20 21:32N 48°25' W 123°23'0 0.0
2018-May-20 21:29N 48°25' W 123°23'0 0.0
2018-May-20 20:57N 48°25' W 123°23'0 0.0
2018-May-20 20:30N 48°25' W 123°23'0 0.0
2018-May-20 20:00N 48°25' W 123°23'0 0.0
2018-May-20 19:30N 48°25' W 123°23'0 0.0
2018-May-20 19:00N 48°25' W 123°23'0 0.0
2018-May-20 18:30N 48°25' W 123°23'0 0.0
2018-May-20 18:00N 48°25' W 123°23'0 0.0
2018-May-20 17:30N 48°25' W 123°23'0 0.0
2018-May-20 17:00N 48°25' W 123°23'0 0.0
2018-May-20 16:30N 48°25' W 123°23'1 1.2
2018-May-20 16:00N 48°25' W 123°24'611.2
2018-May-20 15:30N 48°19' W 123°25'816.4
2018-May-20 15:00N 48°14' W 123°34'917.0
2018-May-20 14:30N 48°14' W 123°47'918.2
2018-May-20 13:58N 48°15' W 124°01'918.6
2018-May-20 13:30N 48°18' W 124°13'918.4
2018-May-20 13:01N 48°23' W 124°25'918.0
2018-May-20 12:31N 48°27' W 124°37'917.7
2018-May-20 12:00N 48°29' W 124°51'816.8
2018-May-20 11:30N 48°25' W 125°02'918.4
2018-May-20 11:00N 48°17' W 125°07'7517.9
2018-May-20 06:48N 47°02' W 125°15'918.3
2018-May-20 06:18N 46°53' W 125°14'618.3
2018-May-20 05:59N 46°47' W 125°14'1418.0
2018-May-20 05:11N 46°33' W 125°13'318.0
2018-May-20 05:00N 46°29' W 125°12'917.9
2018-May-20 04:31N 46°21' W 125°12'1317.8
2018-May-20 03:48N 46°08' W 125°11'517.7
2018-May-20 03:30N 46°03' W 125°10'917.6
2018-May-20 03:01N 45°54' W 125°10'918.0
2018-May-20 02:31N 45°45' W 125°09'917.6
2018-May-20 02:01N 45°36' W 125°08'917.8
2018-May-20 01:30N 45°27' W 125°08'1017.8
2018-May-20 00:57N 45°18' W 125°07'817.7
2018-May-20 00:30N 45°10' W 125°06'1620.0
2018-May-19 23:42N 44°54' W 125°05'621.7
2018-May-19 23:26N 44°48' W 125°05'36720.7
2018-May-19 05:41N 38°44' W 123°55'420.6
2018-May-19 05:29N 38°41' W 123°52'1020.6
2018-May-19 04:59N 38°33' W 123°44'1020.1
2018-May-19 04:30N 38°26' W 123°37'1019.7
2018-May-19 04:00N 38°18' W 123°29'918.9
2018-May-19 03:30N 38°10' W 123°22'1019.3
2018-May-19 03:00N 38°03' W 123°14'1019.8
2018-May-19 02:30N 37°57' W 123°04'1020.4
2018-May-19 02:00N 37°51' W 122°53'1020.2
2018-May-19 01:30N 37°46' W 122°42'815.6
2018-May-19 01:00N 37°48' W 122°32'713.5
2018-May-19 00:30N 37°49' W 122°24'0 0.6
2018-May-18 23:58N 37°48' W 122°24'0 0.0
2018-May-18 23:28N 37°48' W 122°24'0 0.0
2018-May-18 22:58N 37°48' W 122°24'0 0.0
2018-May-18 22:28N 37°48' W 122°24'0 0.0
2018-May-18 21:58N 37°48' W 122°24'0 0.0
2018-May-18 21:28N 37°48' W 122°24'0 0.0
2018-May-18 20:58N 37°48' W 122°24'0 0.0
2018-May-18 20:28N 37°48' W 122°24'0 0.0
2018-May-18 19:58N 37°48' W 122°24'0 0.0
2018-May-18 19:28N 37°48' W 122°24'0 0.0
2018-May-18 18:58N 37°48' W 122°24'0 0.0
2018-May-18 18:28N 37°48' W 122°24'0 0.0
2018-May-18 17:55N 37°48' W 122°24'0 0.0
2018-May-18 17:28N 37°48' W 122°24'0 0.0
2018-May-18 16:58N 37°48' W 122°24'0 0.0
2018-May-18 16:25N 37°48' W 122°24'0 0.0
2018-May-18 15:58N 37°48' W 122°24'0 0.0
2018-May-18 15:28N 37°48' W 122°24'0 0.0
2018-May-18 14:58N 37°48' W 122°24'0 0.0
2018-May-18 14:28N 37°48' W 122°24'0 0.0
2018-May-18 13:58N 37°48' W 122°24'0 0.2
2018-May-18 13:30N 37°48' W 122°24'2 3.9
2018-May-18 13:00N 37°49' W 122°26'613.0
2018-May-18 12:30N 37°47' W 122°34'612.1
2018-May-18 12:01N 37°44' W 122°41'4 7.6
2018-May-18 11:30N 37°40' W 122°40'5 9.8
2018-May-18 11:00N 37°36' W 122°40'510.3
2018-May-18 10:31N 37°30' W 122°40'510.4
2018-May-18 10:00N 37°25' W 122°40'816.9
2018-May-18 09:30N 37°17' W 122°40'815.8
2018-May-18 09:00N 37°09' W 122°41'140 9.1
2018-May-17 17:32N 35°03' W 121°24'118.1
2018-May-17 17:29N 35°02' W 121°23'917.7
2018-May-17 17:00N 34°55' W 121°18'1017.4
2018-May-17 16:27N 34°46' W 121°13'816.9
2018-May-17 16:00N 34°40' W 121°09'816.7
2018-May-17 15:30N 34°32' W 121°04'816.8
2018-May-17 15:00N 34°25' W 120°59'917.1
2018-May-17 14:30N 34°17' W 120°54'916.9
2018-May-17 14:00N 34°10' W 120°49'816.8
2018-May-17 13:30N 34°02' W 120°45'816.6
2018-May-17 13:00N 33°57' W 120°37'816.8
2018-May-17 12:30N 33°53' W 120°28'917.0
2018-May-17 12:00N 33°49' W 120°18'1617.0
2018-May-17 11:04N 33°42' W 120°02'116.0
2018-May-17 11:00N 33°42' W 120°01'916.7
2018-May-17 10:29N 33°38' W 119°51'817.1
2018-May-17 10:00N 33°34' W 119°42'817.0
2018-May-17 09:30N 33°30' W 119°33'917.0
2018-May-17 08:59N 33°27' W 119°24'816.7
2018-May-17 08:30N 33°23' W 119°15'816.9
2018-May-17 08:00N 33°20' W 119°06'  

Dump ship's entire track history